createdAt,value
2023-01-21T00:02:18.491Z,91.41
2023-01-21T00:04:47.123Z,90.21
2023-01-21T00:07:13.989Z,92.28
2023-01-21T00:09:40.957Z,93.61
2023-01-21T00:12:07.826Z,92.80
2023-01-21T00:14:34.542Z,93.50
2023-01-21T00:17:01.581Z,91.95
2023-01-21T00:19:29.780Z,92.83
2023-01-21T00:21:56.911Z,94.12
2023-01-21T00:24:24.654Z,92.45
2023-01-21T00:26:54.108Z,92.09
2023-01-21T00:29:32.119Z,92.58
2023-01-21T00:31:59.166Z,92.34
2023-01-21T00:34:26.066Z,92.39
2023-01-21T00:36:55.089Z,92.93
2023-01-21T00:39:23.623Z,92.85
2023-01-21T00:41:50.386Z,92.33
2023-01-21T00:44:17.950Z,93.29
2023-01-21T00:46:44.740Z,93.26
2023-01-21T00:49:11.467Z,93.59
2023-01-21T00:51:38.356Z,93.09
2023-01-21T00:54:05.187Z,93.43
2023-01-21T00:56:31.832Z,91.00
2023-01-21T00:58:58.640Z,92.48
2023-01-21T01:01:27.934Z,92.55
2023-01-21T01:03:55.037Z,91.18
2023-01-21T01:06:22.920Z,92.77
2023-01-21T01:08:50.101Z,91.67
2023-01-21T01:11:17.486Z,92.66
2023-01-21T01:13:44.416Z,92.73
2023-01-21T01:16:13.143Z,92.79
2023-01-21T01:18:40.080Z,93.48
2023-01-21T01:21:07.075Z,93.17
2023-01-21T01:23:33.906Z,92.10
2023-01-21T01:26:01.712Z,92.32
2023-01-21T01:28:28.610Z,92.90
2023-01-21T01:30:55.653Z,92.33
2023-01-21T01:33:22.784Z,91.20
2023-01-21T01:35:49.882Z,90.63
2023-01-21T01:38:17.548Z,92.08
2023-01-21T01:40:45.583Z,91.48
2023-01-21T01:43:18.524Z,93.19
2023-01-21T01:45:45.804Z,91.89
2023-01-21T01:48:16.475Z,92.86
2023-01-21T01:50:43.455Z,92.92
2023-01-21T01:53:12.228Z,90.08
2023-01-21T01:55:40.124Z,90.23
2023-01-21T01:58:09.022Z,90.88
2023-01-21T02:00:36.028Z,92.79
2023-01-21T02:03:22.345Z,93.40
2023-01-21T02:05:49.127Z,92.13
2023-01-21T02:08:16.013Z,92.49
2023-01-21T02:10:42.773Z,91.18
2023-01-21T02:13:10.041Z,92.51
2023-01-21T02:15:52.393Z,92.25
2023-01-21T02:18:31.747Z,92.11
2023-01-21T02:21:37.061Z,90.09
2023-01-21T02:24:22.862Z,91.61
2023-01-21T02:27:12.478Z,92.47
2023-01-21T02:29:58.126Z,92.15
2023-01-21T02:32:30.139Z,91.99
2023-01-21T02:35:18.483Z,91.83
2023-01-21T02:37:55.383Z,91.14
2023-01-21T02:40:29.557Z,92.23
2023-01-21T02:43:07.201Z,91.69
2023-01-21T02:45:37.717Z,91.30
2023-01-21T02:48:27.997Z,91.79
2023-01-21T02:50:54.982Z,92.17
2023-01-21T02:53:29.353Z,92.57
2023-01-21T02:55:57.818Z,91.03
2023-01-21T02:58:28.871Z,91.65
2023-01-21T03:01:11.560Z,91.50
2023-01-21T03:03:56.308Z,90.24
2023-01-21T03:06:36.650Z,92.56
2023-01-21T03:09:03.344Z,94.02
2023-01-21T03:11:30.143Z,92.29
2023-01-21T03:14:28.424Z,91.86
2023-01-21T03:16:58.803Z,91.55
2023-01-21T03:19:30.560Z,91.12
2023-01-21T03:21:58.864Z,90.00
2023-01-21T03:24:26.278Z,90.45
2023-01-21T03:26:54.378Z,90.52
2023-01-21T03:29:24.995Z,88.30
2023-01-21T03:31:55.353Z,88.33
2023-01-21T03:34:23.911Z,88.56
2023-01-21T03:36:50.636Z,91.57
2023-01-21T03:39:36.537Z,89.76
2023-01-21T03:42:03.684Z,90.29
2023-01-21T03:44:30.635Z,91.79
2023-01-21T03:47:04.006Z,90.62
2023-01-21T03:49:53.367Z,90.29
2023-01-21T03:52:22.230Z,90.25
2023-01-21T03:54:49.458Z,90.18
2023-01-21T03:57:16.239Z,90.21
2023-01-21T03:59:43.163Z,89.68
2023-01-21T04:02:10.158Z,89.44
2023-01-21T04:04:36.925Z,90.12
2023-01-21T04:07:03.851Z,89.68
2023-01-21T04:09:30.721Z,90.76
2023-01-21T04:11:58.663Z,90.68
2023-01-21T04:14:31.065Z,91.00
2023-01-21T04:16:57.965Z,89.97
2023-01-21T04:19:29.329Z,89.72
2023-01-21T04:21:56.133Z,91.22
2023-01-21T04:24:22.965Z,90.45
2023-01-21T04:26:49.795Z,91.25
2023-01-21T04:29:17.403Z,90.78
2023-01-21T04:31:44.540Z,90.43
2023-01-21T04:34:11.348Z,90.23
2023-01-21T04:36:38.113Z,90.71
2023-01-21T04:39:04.779Z,90.36
2023-01-21T04:41:31.502Z,89.48
2023-01-21T04:43:58.424Z,89.40
2023-01-21T04:46:25.298Z,89.96
2023-01-21T04:48:52.664Z,90.38
2023-01-21T04:51:19.507Z,91.38
2023-01-21T04:53:46.377Z,89.47
2023-01-21T04:56:13.666Z,89.44
2023-01-21T04:58:40.511Z,90.39
2023-01-21T05:01:07.409Z,90.72
2023-01-21T05:03:35.856Z,90.86
2023-01-21T05:06:02.697Z,90.92
2023-01-21T05:08:29.430Z,90.01
2023-01-21T05:10:56.596Z,89.84
2023-01-21T05:13:23.375Z,89.62
2023-01-21T05:15:50.332Z,91.24
2023-01-21T05:18:19.218Z,90.21
2023-01-21T05:20:45.987Z,90.68
2023-01-21T05:23:12.744Z,90.53
2023-01-21T05:25:39.549Z,91.10
2023-01-21T05:28:06.312Z,89.58
2023-01-21T05:30:33.191Z,90.47
2023-01-21T05:33:00.047Z,90.27
2023-01-21T05:35:26.892Z,90.16
2023-01-21T05:37:53.677Z,90.19
2023-01-21T05:40:20.637Z,89.59
2023-01-21T05:42:47.510Z,88.40
2023-01-21T05:45:14.778Z,90.25
2023-01-21T05:47:41.600Z,90.97
2023-01-21T05:50:09.826Z,90.36
2023-01-21T05:52:36.925Z,88.29
2023-01-21T05:55:04.700Z,89.70
2023-01-21T05:57:40.812Z,89.18
2023-01-21T06:00:08.114Z,90.29
2023-01-21T06:02:34.940Z,91.70
2023-01-21T06:05:01.695Z,92.29
2023-01-21T06:07:28.425Z,90.96
2023-01-21T06:09:55.147Z,89.28
2023-01-21T06:12:23.900Z,88.72
2023-01-21T06:14:51.456Z,90.83
2023-01-21T06:17:18.138Z,88.70
2023-01-21T06:19:44.895Z,90.73
2023-01-21T06:22:18.436Z,90.66
2023-01-21T06:24:45.311Z,90.53
2023-01-21T06:27:12.565Z,90.18
2023-01-21T06:29:39.519Z,89.19
2023-01-21T06:32:06.565Z,89.16
2023-01-21T06:34:33.370Z,90.98
2023-01-21T06:37:00.086Z,90.15
2023-01-21T06:39:26.817Z,90.17
2023-01-21T06:41:55.244Z,90.44
2023-01-21T06:44:22.724Z,89.78
2023-01-21T06:47:00.114Z,90.30
2023-01-21T06:49:27.690Z,89.99
2023-01-21T06:51:54.585Z,90.76
2023-01-21T06:54:21.396Z,90.64
2023-01-21T06:56:48.079Z,90.73
2023-01-21T06:59:14.812Z,90.67
2023-01-21T07:01:41.605Z,90.22
2023-01-21T07:04:08.380Z,89.57
2023-01-21T07:06:35.176Z,89.16
2023-01-21T07:09:01.870Z,88.23
2023-01-21T07:11:29.085Z,90.11
2023-01-21T07:13:55.809Z,89.45
2023-01-21T07:16:22.635Z,87.97
2023-01-21T07:18:49.412Z,90.60
2023-01-21T07:21:16.339Z,90.70
2023-01-21T07:23:43.114Z,89.96
2023-01-21T07:26:09.866Z,90.87
2023-01-21T07:28:36.901Z,90.69
2023-01-21T07:31:04.429Z,89.21
2023-01-21T07:33:31.236Z,89.38
2023-01-21T07:35:58.007Z,88.88
2023-01-21T07:38:25.929Z,89.47
2023-01-21T07:40:52.622Z,89.41
2023-01-21T07:43:19.507Z,89.79
2023-01-21T07:45:46.397Z,90.34
2023-01-21T07:48:13.293Z,90.53
2023-01-21T07:50:40.070Z,90.60
2023-01-21T07:53:06.922Z,87.75
2023-01-21T07:55:33.842Z,89.06
2023-01-21T07:58:00.635Z,89.85
2023-01-21T08:00:27.379Z,89.28
2023-01-21T08:02:55.335Z,87.80
2023-01-21T08:05:23.313Z,87.51
2023-01-21T08:07:50.420Z,88.98
2023-01-21T08:10:17.620Z,89.42
2023-01-21T08:12:44.626Z,88.40
2023-01-21T08:15:11.772Z,89.74
2023-01-21T08:17:39.793Z,89.79
2023-01-21T08:20:08.304Z,89.23
2023-01-21T08:22:35.096Z,87.99
2023-01-21T08:25:01.995Z,90.07
2023-01-21T08:27:28.866Z,89.71
2023-01-21T08:29:55.862Z,89.30
2023-01-21T08:32:22.717Z,87.96
2023-01-21T08:34:50.267Z,87.69
2023-01-21T08:37:17.211Z,89.12
2023-01-21T08:39:43.939Z,89.89
2023-01-21T08:42:10.812Z,87.66
2023-01-21T08:44:37.631Z,88.06
2023-01-21T08:47:04.409Z,87.91
2023-01-21T08:49:32.458Z,89.25
2023-01-21T08:52:21.006Z,87.94
2023-01-21T08:54:50.939Z,87.94
2023-01-21T08:57:17.768Z,88.91
2023-01-21T08:59:44.478Z,88.63
2023-01-21T09:02:11.511Z,87.40
2023-01-21T09:04:38.363Z,88.32
2023-01-21T09:07:05.108Z,88.85
2023-01-21T09:09:31.924Z,88.51
2023-01-21T09:11:58.753Z,87.79
2023-01-21T09:14:26.540Z,87.29
2023-01-21T09:16:56.011Z,86.86
2023-01-21T09:19:24.210Z,85.37
2023-01-21T09:21:52.734Z,87.06
2023-01-21T09:24:19.611Z,88.25
2023-01-21T09:26:46.485Z,87.90
2023-01-21T09:29:13.419Z,86.74
2023-01-21T09:31:40.318Z,87.55
2023-01-21T09:34:07.185Z,87.75
2023-01-21T09:36:35.094Z,87.09
2023-01-21T09:39:02.565Z,87.55
2023-01-21T09:41:37.854Z,86.97
2023-01-21T09:44:13.091Z,86.05
2023-01-21T09:46:43.276Z,85.17
2023-01-21T09:49:15.600Z,85.71
2023-01-21T09:51:52.369Z,85.27
2023-01-21T09:54:25.961Z,86.51
2023-01-21T09:57:00.184Z,86.70
2023-01-21T09:59:39.245Z,86.87
2023-01-21T10:02:09.865Z,87.09
2023-01-21T10:04:59.640Z,86.55
2023-01-21T10:07:34.463Z,87.21
2023-01-21T10:10:18.320Z,86.96
2023-01-21T10:12:54.438Z,87.89
2023-01-21T10:15:30.074Z,86.15
2023-01-21T10:17:59.885Z,85.49
2023-01-21T10:20:29.398Z,85.60
2023-01-21T10:23:07.675Z,84.41
2023-01-21T10:25:36.914Z,84.57
2023-01-21T10:28:23.957Z,84.91
2023-01-21T10:30:52.268Z,85.62
2023-01-21T10:33:24.195Z,86.87
2023-01-21T10:35:57.095Z,86.85
2023-01-21T10:38:39.010Z,86.27
2023-01-21T10:41:29.063Z,87.20
2023-01-21T10:44:06.685Z,86.38
2023-01-21T10:46:36.452Z,85.79
2023-01-21T10:49:09.241Z,86.03
2023-01-21T10:51:54.129Z,85.94
2023-01-21T10:54:30.072Z,86.01
2023-01-21T10:57:19.489Z,86.18
2023-01-21T10:59:46.642Z,84.47
2023-01-21T11:02:27.881Z,84.66
2023-01-21T11:04:54.983Z,84.87
2023-01-21T11:07:22.613Z,84.74
2023-01-21T11:09:49.533Z,86.33
2023-01-21T11:12:20.657Z,85.34
2023-01-21T11:14:54.057Z,83.96
2023-01-21T11:17:32.375Z,84.42
2023-01-21T11:20:00.829Z,82.36
2023-01-21T11:22:29.897Z,82.80
2023-01-21T11:24:56.684Z,83.43
2023-01-21T11:27:23.363Z,83.86
2023-01-21T11:29:50.787Z,84.26
2023-01-21T11:32:26.046Z,84.49
2023-01-21T11:34:59.343Z,85.04
2023-01-21T11:37:30.494Z,86.54
2023-01-21T11:39:57.317Z,86.21
2023-01-21T11:42:24.776Z,85.58
2023-01-21T11:44:57.718Z,86.69
2023-01-21T11:47:36.292Z,89.00
2023-01-21T11:50:13.669Z,89.21
2023-01-21T11:52:41.052Z,89.79
2023-01-21T11:55:26.369Z,89.81
2023-01-21T11:57:55.150Z,89.55
2023-01-21T12:00:27.706Z,89.16
2023-01-21T12:03:03.348Z,90.20
2023-01-21T12:05:35.045Z,91.00
2023-01-21T12:08:03.777Z,93.32
2023-01-21T12:10:32.573Z,94.76
2023-01-21T12:13:17.000Z,92.78
2023-01-21T12:15:43.851Z,93.82
2023-01-21T12:18:30.264Z,93.96
2023-01-21T12:21:00.522Z,96.90
2023-01-21T12:23:37.248Z,95.83
2023-01-21T12:26:17.820Z,96.98
2023-01-21T12:29:02.841Z,97.72
2023-01-21T12:31:43.055Z,97.84
2023-01-21T12:34:09.882Z,98.58
2023-01-21T12:36:40.770Z,99.24
2023-01-21T12:39:13.295Z,98.93
2023-01-21T12:41:42.523Z,99.14
2023-01-21T12:44:18.238Z,99.51
2023-01-21T12:46:48.141Z,100.00
2023-01-21T12:49:19.602Z,98.50
2023-01-21T12:51:48.045Z,98.42
2023-01-21T12:54:18.214Z,99.86
2023-01-21T12:56:51.337Z,98.88
2023-01-21T12:59:27.010Z,99.17
2023-01-21T13:01:53.908Z,100.00
2023-01-21T13:04:29.061Z,100.00
2023-01-21T13:06:56.666Z,100.00
2023-01-21T13:09:29.162Z,100.00
2023-01-21T13:12:03.518Z,99.93
2023-01-21T13:14:41.261Z,100.00
2023-01-21T13:17:14.098Z,100.00
2023-01-21T13:19:40.871Z,100.00
2023-01-21T13:22:10.351Z,100.00
2023-01-21T13:24:56.011Z,100.00
2023-01-21T13:27:25.520Z,100.00
2023-01-21T13:30:01.620Z,100.00
2023-01-21T13:32:47.240Z,100.00
2023-01-21T13:35:20.278Z,100.00
2023-01-21T13:37:49.987Z,100.00
2023-01-21T13:40:37.337Z,100.00
2023-01-21T13:43:25.218Z,100.00
2023-01-21T13:46:00.507Z,100.00
2023-01-21T13:48:42.370Z,100.00
2023-01-21T13:51:09.303Z,100.00
2023-01-21T13:53:50.515Z,100.00
2023-01-21T13:56:32.688Z,100.00
2023-01-21T13:59:03.181Z,100.00
2023-01-21T14:01:36.572Z,100.00
2023-01-21T14:04:06.228Z,100.00
2023-01-21T14:06:42.338Z,100.00
2023-01-21T14:09:14.097Z,100.00
2023-01-21T14:11:44.792Z,100.00
2023-01-21T14:14:31.038Z,100.00
2023-01-21T14:17:06.964Z,100.00
2023-01-21T14:19:52.310Z,100.00
2023-01-21T14:22:25.145Z,100.00
2023-01-21T14:24:54.965Z,100.00
2023-01-21T14:27:40.703Z,100.00
2023-01-21T14:30:15.720Z,100.00
2023-01-21T14:32:48.672Z,100.00
2023-01-21T14:35:20.035Z,100.00
2023-01-21T14:37:54.539Z,100.00
2023-01-21T14:40:29.336Z,100.00
2023-01-21T14:42:56.322Z,100.00
2023-01-21T14:45:25.966Z,100.00
2023-01-21T14:47:53.715Z,100.00
2023-01-21T14:50:39.209Z,100.00
2023-01-21T14:53:13.391Z,100.00
2023-01-21T14:55:40.230Z,100.00
2023-01-21T14:58:15.229Z,100.00
2023-01-21T15:00:46.732Z,100.00
2023-01-21T15:03:27.212Z,100.00
2023-01-21T15:05:55.556Z,100.00
2023-01-21T15:08:24.150Z,100.00
2023-01-21T15:10:53.791Z,100.00
2023-01-21T15:13:31.012Z,100.00
2023-01-21T15:16:16.298Z,100.00
2023-01-21T15:19:05.651Z,100.00
2023-01-21T15:21:41.718Z,100.00
2023-01-21T15:24:24.777Z,100.00
2023-01-21T15:27:10.060Z,100.00
2023-01-21T15:29:38.061Z,100.00
2023-01-21T15:32:23.622Z,100.00
2023-01-21T15:34:51.767Z,100.00
2023-01-21T15:37:21.599Z,100.00
2023-01-21T15:39:52.483Z,100.00
2023-01-21T15:42:44.421Z,100.00
2023-01-21T15:45:11.162Z,100.00
2023-01-21T15:47:49.873Z,100.00
2023-01-21T15:50:19.698Z,100.00
2023-01-21T15:52:58.756Z,100.00
2023-01-21T15:55:44.216Z,100.00
2023-01-21T15:58:21.954Z,100.00
2023-01-21T16:00:48.702Z,100.00
2023-01-21T16:03:18.257Z,100.00
2023-01-21T16:06:10.277Z,100.00
2023-01-21T16:08:37.061Z,100.00
2023-01-21T16:11:22.415Z,100.00
2023-01-21T16:14:05.137Z,100.00
2023-01-21T16:16:32.198Z,100.00
2023-01-21T16:18:59.573Z,100.00
2023-01-21T16:21:33.283Z,100.00
2023-01-21T16:24:02.962Z,100.00
2023-01-21T16:26:32.853Z,100.00
2023-01-21T16:28:59.862Z,100.00
2023-01-21T16:31:26.727Z,100.00
2023-01-21T16:33:54.423Z,100.00
2023-01-21T16:36:22.201Z,100.00
2023-01-21T16:38:49.065Z,100.00
2023-01-21T16:41:19.414Z,100.00
2023-01-21T16:43:48.124Z,100.00
2023-01-21T16:46:16.475Z,100.00
2023-01-21T16:48:43.296Z,100.00
2023-01-21T16:51:28.897Z,100.00
2023-01-21T16:54:14.488Z,100.00
2023-01-21T16:56:47.079Z,100.00
2023-01-21T16:59:21.279Z,100.00
2023-01-21T17:01:49.262Z,100.00
2023-01-21T17:04:16.092Z,100.00
2023-01-21T17:06:44.547Z,100.00
2023-01-21T17:09:22.171Z,100.00
2023-01-21T17:11:49.286Z,100.00
2023-01-21T17:14:20.991Z,100.00
2023-01-21T17:16:47.946Z,100.00
2023-01-21T17:19:32.775Z,100.00
2023-01-21T17:22:00.784Z,100.00
2023-01-21T17:24:40.382Z,100.00
2023-01-21T17:27:09.232Z,100.00
2023-01-21T17:29:36.036Z,100.00
2023-01-21T17:32:03.007Z,100.00
2023-01-21T17:34:30.926Z,100.00
2023-01-21T17:36:57.893Z,100.00
2023-01-21T17:39:43.059Z,100.00
2023-01-21T17:42:15.481Z,100.00
2023-01-21T17:44:45.721Z,100.00
2023-01-21T17:47:21.807Z,100.00
2023-01-21T17:49:48.688Z,100.00
2023-01-21T17:52:20.025Z,100.00
2023-01-21T17:54:48.352Z,100.00
2023-01-21T17:57:34.439Z,100.00
2023-01-21T18:00:01.324Z,100.00
2023-01-21T18:02:28.075Z,100.00
2023-01-21T18:04:54.790Z,100.00
2023-01-21T18:07:23.136Z,100.00
2023-01-21T18:09:50.672Z,100.00
2023-01-21T18:12:19.590Z,100.00
2023-01-21T18:14:46.783Z,100.00
2023-01-21T18:17:24.043Z,100.00
2023-01-21T18:19:50.804Z,100.00
2023-01-21T18:22:21.809Z,100.00
2023-01-21T18:24:48.602Z,100.00
2023-01-21T18:27:15.403Z,100.00
2023-01-21T18:29:43.556Z,100.00
2023-01-21T18:32:12.361Z,100.00
2023-01-21T18:34:39.140Z,100.00
2023-01-21T18:37:19.155Z,100.00
2023-01-21T18:39:46.675Z,100.00
2023-01-21T18:42:14.329Z,100.00
2023-01-21T18:44:41.340Z,100.00
2023-01-21T18:47:15.223Z,100.00
2023-01-21T18:49:42.656Z,100.00
2023-01-21T18:52:10.625Z,100.00
2023-01-21T18:54:37.365Z,100.00
2023-01-21T18:57:04.302Z,100.00
2023-01-21T18:59:31.040Z,100.00
2023-01-21T19:01:57.824Z,100.00
2023-01-21T19:04:24.662Z,100.00
2023-01-21T19:06:53.461Z,100.00
2023-01-21T19:09:21.809Z,100.00
2023-01-21T19:11:48.772Z,100.00
2023-01-21T19:14:15.548Z,100.00
2023-01-21T19:16:43.003Z,100.00
2023-01-21T19:19:13.133Z,100.00
2023-01-21T19:21:40.308Z,100.00
2023-01-21T19:24:08.995Z,100.00
2023-01-21T19:26:37.784Z,100.00
2023-01-21T19:29:05.014Z,100.00
2023-01-21T19:31:32.591Z,100.00
2023-01-21T19:33:59.389Z,100.00
2023-01-21T19:36:26.335Z,100.00
2023-01-21T19:38:57.417Z,100.00
2023-01-21T19:41:24.824Z,100.00
2023-01-21T19:43:51.617Z,100.00
2023-01-21T19:46:18.672Z,100.00
2023-01-21T19:48:45.363Z,100.00
2023-01-21T19:51:12.288Z,100.00
2023-01-21T19:53:39.121Z,100.00
2023-01-21T19:56:06.131Z,100.00
2023-01-21T19:58:32.929Z,100.00
2023-01-21T20:00:59.756Z,100.00
2023-01-21T20:03:28.343Z,100.00
2023-01-21T20:05:58.683Z,100.00
2023-01-21T20:08:27.900Z,100.00
2023-01-21T20:10:54.772Z,100.00
2023-01-21T20:13:21.484Z,100.00
2023-01-21T20:15:49.895Z,100.00
2023-01-21T20:18:24.814Z,100.00
2023-01-21T20:20:52.331Z,100.00
2023-01-21T20:23:20.282Z,100.00
2023-01-21T20:25:50.197Z,100.00
2023-01-21T20:28:24.463Z,100.00
2023-01-21T20:30:52.241Z,100.00
2023-01-21T20:33:20.304Z,100.00
2023-01-21T20:35:51.141Z,100.00
2023-01-21T20:38:20.040Z,100.00
2023-01-21T20:40:46.811Z,100.00
2023-01-21T20:43:13.527Z,100.00
2023-01-21T20:45:44.857Z,100.00
2023-01-21T20:48:19.903Z,100.00
2023-01-21T20:50:46.867Z,100.00
2023-01-21T20:53:13.720Z,100.00
2023-01-21T20:55:40.615Z,100.00
2023-01-21T20:58:07.558Z,100.00
2023-01-21T21:00:35.603Z,100.00
2023-01-21T21:03:02.686Z,100.00
2023-01-21T21:05:29.471Z,100.00
2023-01-21T21:07:56.194Z,100.00
2023-01-21T21:10:26.057Z,100.00
2023-01-21T21:12:53.186Z,100.00
2023-01-21T21:15:20.700Z,100.00
2023-01-21T21:17:47.836Z,100.00
2023-01-21T21:20:15.395Z,100.00
2023-01-21T21:22:42.231Z,100.00
2023-01-21T21:25:13.318Z,100.00
2023-01-21T21:27:39.986Z,100.00
2023-01-21T21:30:08.933Z,100.00
2023-01-21T21:32:36.758Z,100.00
2023-01-21T21:35:03.592Z,100.00
2023-01-21T21:37:31.435Z,100.00
2023-01-21T21:39:58.596Z,100.00
2023-01-21T21:42:44.015Z,100.00
2023-01-21T21:45:10.983Z,100.00
2023-01-21T21:47:56.457Z,100.00
2023-01-21T21:50:23.230Z,100.00
2023-01-21T21:52:49.878Z,100.00
2023-01-21T21:55:19.599Z,100.00
2023-01-21T21:57:46.425Z,100.00
2023-01-21T22:00:13.653Z,100.00
2023-01-21T22:02:40.376Z,100.00
2023-01-21T22:05:07.304Z,100.00
2023-01-21T22:07:34.076Z,100.00
2023-01-21T22:10:00.780Z,100.00
2023-01-21T22:12:27.510Z,100.00
2023-01-21T22:14:54.371Z,100.00
2023-01-21T22:17:21.158Z,100.00
2023-01-21T22:19:48.005Z,100.00
2023-01-21T22:22:14.926Z,100.00
2023-01-21T22:24:41.790Z,100.00
2023-01-21T22:27:08.637Z,100.00
2023-01-21T22:29:35.303Z,100.00
2023-01-21T22:32:03.982Z,100.00
2023-01-21T22:34:30.791Z,100.00
2023-01-21T22:36:57.539Z,100.00
2023-01-21T22:39:24.587Z,100.00
2023-01-21T22:41:52.852Z,100.00
2023-01-21T22:44:19.662Z,100.00
2023-01-21T22:46:46.416Z,100.00
2023-01-21T22:49:13.101Z,100.00
2023-01-21T22:51:39.872Z,100.00
2023-01-21T22:54:07.675Z,100.00
2023-01-21T22:56:51.192Z,100.00
2023-01-21T22:59:19.141Z,100.00
2023-01-21T23:01:45.956Z,100.00
2023-01-21T23:04:12.721Z,100.00
2023-01-21T23:06:39.484Z,100.00
2023-01-21T23:09:09.257Z,100.00
2023-01-21T23:11:38.188Z,100.00
2023-01-21T23:14:05.370Z,100.00
2023-01-21T23:16:32.194Z,100.00
2023-01-21T23:18:59.213Z,100.00
2023-01-21T23:21:27.044Z,100.00
2023-01-21T23:23:53.782Z,100.00
2023-01-21T23:26:21.093Z,100.00
2023-01-21T23:28:53.791Z,100.00
2023-01-21T23:31:20.718Z,100.00
2023-01-21T23:33:59.684Z,100.00
2023-01-21T23:36:26.592Z,100.00
2023-01-21T23:38:54.254Z,100.00
2023-01-21T23:41:21.298Z,100.00
2023-01-21T23:43:47.994Z,100.00
2023-01-21T23:46:22.422Z,100.00
2023-01-21T23:48:49.354Z,100.00
2023-01-21T23:51:17.009Z,100.00
2023-01-21T23:53:43.703Z,100.00
2023-01-21T23:56:15.578Z,100.00
2023-01-21T23:58:42.370Z,100.00
